Time;durP1;ratioP1;P1;durP2;ratioP2;P2;SDS_P1;SDS_P2;PMS_P1;PMS_P2;Temp;Humidity;BMP_temperature;BMP_pressure;BME280_temperature;BME280_humidity;BME280_pressure;Samples;Min_cycle;Max_cycle;Signal;HPM_P1;HPM_P2
2022/02/23 00:01:09;;;;;;;5.15;2.70;;;18.30;47.80;;;;;;5056447;28;20169;-83
2022/02/23 00:03:36;;;;;;;3.60;2.75;;;18.40;47.80;;;;;;5073918;28;20154;-82
2022/02/23 00:06:02;;;;;;;5.25;2.67;;;18.30;47.50;;;;;;5074198;28;20294;-83
2022/02/23 00:08:27;;;;;;;5.13;2.80;;;18.30;47.80;;;;;;5041705;28;20193;-82
2022/02/23 00:10:56;;;;;;;6.68;2.90;;;18.30;48.00;;;;;;5058467;28;20200;-82
2022/02/23 00:13:22;;;;;;;3.95;2.47;;;18.20;47.70;;;;;;5037087;28;20277;-83
2022/02/23 00:15:54;;;;;;;5.65;2.95;;;18.30;47.90;;;;;;5087018;28;20224;-84
2022/02/23 00:18:23;;;;;;;5.18;2.60;;;18.30;48.00;;;;;;5037558;28;20181;-83
2022/02/23 00:20:51;;;;;;;4.82;2.40;;;18.40;47.80;;;;;;5053308;28;20191;-83
2022/02/23 00:23:22;;;;;;;8.00;2.60;;;18.20;47.60;;;;;;5025151;28;20215;-83
2022/02/23 00:25:52;;;;;;;6.45;2.50;;;18.30;48.00;;;;;;5022190;28;20190;-83
2022/02/23 00:28:22;;;;;;;5.80;2.63;;;18.20;48.10;;;;;;5038637;28;20178;-83
2022/02/23 00:30:51;;;;;;;4.90;2.50;;;18.30;48.00;;;;;;5017656;28;20320;-82
2022/02/23 00:33:23;;;;;;;4.28;2.72;;;18.20;47.80;;;;;;5035007;28;20174;-84
2022/02/23 00:35:51;;;;;;;3.20;2.67;;;18.20;48.00;;;;;;5002131;28;20382;-82
2022/02/23 00:38:19;;;;;;;6.30;2.45;;;18.20;47.90;;;;;;5035118;28;20184;-83
2022/02/23 00:40:45;;;;;;;3.72;2.40;;;18.20;48.10;;;;;;5034830;28;20184;-82
2022/02/23 00:43:13;;;;;;;3.70;2.42;;;18.30;47.70;;;;;;5035500;28;20170;-82
2022/02/23 00:45:39;;;;;;;6.47;2.70;;;18.30;47.70;;;;;;5035032;28;20182;-83
2022/02/23 00:48:11;;;;;;;3.72;2.55;;;18.30;47.70;;;;;;5018842;28;20256;-83
2022/02/23 00:50:40;;;;;;;5.90;2.70;;;18.30;47.90;;;;;;5034970;28;20178;-83
2022/02/23 00:53:08;;;;;;;4.45;2.55;;;18.30;47.90;;;;;;5034734;28;20224;-82
2022/02/23 00:55:37;;;;;;;4.88;2.58;;;18.30;47.80;;;;;;5034548;28;20189;-83
2022/02/23 00:58:05;;;;;;;4.43;2.58;;;18.20;47.90;;;;;;5034768;28;20228;-83
2022/02/23 01:00:34;;;;;;;6.60;2.55;;;18.20;47.60;;;;;;5034511;28;20186;-82
2022/02/23 01:03:02;;;;;;;6.03;2.42;;;18.20;48.20;;;;;;5034808;28;20177;-83
2022/02/23 01:05:31;;;;;;;5.75;2.50;;;18.20;48.00;;;;;;5035023;28;20182;-83
2022/02/23 01:07:59;;;;;;;4.88;2.30;;;18.20;47.90;;;;;;5001812;28;20632;-84
2022/02/23 01:10:27;;;;;;;5.18;2.80;;;18.20;48.00;;;;;;5034791;28;20182;-82
2022/02/23 01:12:55;;;;;;;3.15;2.40;;;18.20;47.20;;;;;;5034763;28;20185;-83
2022/02/23 01:15:24;;;;;;;6.75;2.95;;;18.20;47.90;;;;;;5034592;28;20182;-84
2022/02/23 01:17:52;;;;;;;4.43;2.67;;;18.20;48.00;;;;;;5034926;28;20227;-83
2022/02/23 01:20:19;;;;;;;7.03;2.58;;;18.20;47.90;;;;;;5034629;28;20179;-83
2022/02/23 01:22:47;;;;;;;3.83;2.15;;;18.30;48.20;;;;;;5034503;28;20178;-83
2022/02/23 01:25:14;;;;;;;4.03;2.50;;;18.20;48.40;;;;;;5034644;28;20250;-83
2022/02/23 01:27:42;;;;;;;5.78;2.88;;;18.20;48.30;;;;;;5034357;28;20262;-82
2022/02/23 01:30:08;;;;;;;3.80;2.50;;;18.10;48.20;;;;;;5030864;28;20561;-83
2022/02/23 01:32:35;;;;;;;4.88;2.67;;;18.10;47.90;;;;;;5032016;28;20169;-82
2022/02/23 01:35:03;;;;;;;3.97;2.47;;;18.10;48.00;;;;;;4998259;28;20244;-83
2022/02/23 01:37:30;;;;;;;4.53;2.55;;;18.10;48.10;;;;;;4998320;28;20688;-83
2022/02/23 01:39:57;;;;;;;5.40;2.80;;;18.10;48.00;;;;;;5014596;28;20273;-82
2022/02/23 01:42:24;;;;;;;7.18;2.75;;;18.10;48.20;;;;;;5001532;28;20185;-83
2022/02/23 01:44:49;;;;;;;6.85;2.40;;;18.10;48.30;;;;;;5002039;28;20277;-83
2022/02/23 01:47:16;;;;;;;3.22;2.47;;;18.00;48.00;;;;;;5035816;28;20571;-83
2022/02/23 01:49:44;;;;;;;4.97;2.40;;;18.10;47.80;;;;;;5001522;28;20178;-83
2022/02/23 01:52:11;;;;;;;5.85;2.63;;;18.10;48.00;;;;;;5001761;28;20182;-83
2022/02/23 01:54:38;;;;;;;5.18;3.00;;;18.10;47.70;;;;;;5001847;28;20185;-82
2022/02/23 01:57:06;;;;;;;3.97;2.75;;;18.00;47.70;;;;;;5018057;28;20214;-83
2022/02/23 01:59:33;;;;;;;3.22;2.42;;;18.10;48.10;;;;;;5002538;28;20209;-82
2022/02/23 02:02:00;;;;;;;4.57;2.60;;;18.00;47.70;;;;;;5018343;28;20183;-83
2022/02/23 02:04:26;;;;;;;5.03;2.60;;;18.10;47.80;;;;;;5001560;28;20585;-83
2022/02/23 02:06:53;;;;;;;4.22;2.63;;;18.10;47.80;;;;;;5035380;28;20167;-83
2022/02/23 02:09:21;;;;;;;5.75;2.45;;;18.10;47.80;;;;;;5001331;28;20178;-83
2022/02/23 02:11:48;;;;;;;4.13;2.60;;;18.00;47.80;;;;;;5018030;28;20699;-84
2022/02/23 02:14:16;;;;;;;4.35;2.33;;;18.10;47.80;;;;;;5017837;28;20182;-82
2022/02/23 02:16:46;;;;;;;5.25;2.60;;;18.10;47.80;;;;;;5001465;28;20589;-83
2022/02/23 02:19:13;;;;;;;3.28;2.38;;;18.00;47.90;;;;;;5001818;28;20178;-83
2022/02/23 02:21:56;;;;;;;5.35;2.70;;;18.10;47.80;;;;;;5001413;28;20251;-83
2022/02/23 02:24:25;;;;;;;5.50;2.75;;;18.10;48.00;;;;;;5035938;28;20151;-83
2022/02/23 02:26:53;;;;;;;2.95;2.45;;;18.00;47.80;;;;;;5033942;28;20205;-82
2022/02/23 02:29:19;;;;;;;4.28;2.60;;;18.10;48.00;;;;;;5006262;28;20183;-84
2022/02/23 02:31:51;;;;;;;4.35;2.53;;;18.00;48.10;;;;;;5058130;28;20168;-83
2022/02/23 02:34:18;;;;;;;7.03;2.55;;;18.00;48.00;;;;;;5008393;28;20532;-83
2022/02/23 02:36:48;;;;;;;3.20;2.25;;;18.00;47.90;;;;;;5024013;28;20290;-83
2022/02/23 02:39:16;;;;;;;5.20;2.63;;;18.00;47.80;;;;;;5058927;28;20256;-83
2022/02/23 02:41:42;;;;;;;4.07;2.25;;;18.00;47.70;;;;;;5024254;28;20177;-83
2022/02/23 02:44:08;;;;;;;5.22;2.42;;;18.10;47.80;;;;;;5057755;28;20158;-83
2022/02/23 02:46:37;;;;;;;4.93;2.45;;;18.00;47.40;;;;;;5057840;28;20183;-83
2022/02/23 02:49:02;;;;;;;4.13;2.60;;;18.10;47.80;;;;;;5040245;28;20272;-83
2022/02/23 02:51:30;;;;;;;3.53;2.50;;;18.10;48.00;;;;;;5041611;28;20200;-82
2022/02/23 02:53:58;;;;;;;5.75;2.40;;;18.00;47.90;;;;;;5039191;28;20184;-83
2022/02/23 02:56:25;;;;;;;3.25;2.40;;;18.00;47.80;;;;;;5023839;28;20209;-83
2022/02/23 02:58:55;;;;;;;5.45;2.75;;;18.00;47.90;;;;;;5006977;28;20174;-84
2022/02/23 03:01:22;;;;;;;5.20;2.72;;;18.00;47.80;;;;;;5007219;28;20226;-83
2022/02/23 03:03:48;;;;;;;3.53;2.60;;;18.00;47.80;;;;;;5057447;28;20153;-82
2022/02/23 03:06:15;;;;;;;3.70;2.30;;;18.00;47.90;;;;;;5040604;28;20169;-82
2022/02/23 03:08:43;;;;;;;3.70;2.60;;;17.90;47.70;;;;;;5007439;28;20177;-82
2022/02/23 03:11:10;;;;;;;4.85;2.70;;;18.00;47.90;;;;;;5023421;28;20652;-82
2022/02/23 03:13:37;;;;;;;5.45;2.60;;;18.00;47.80;;;;;;5023622;28;20186;-83
2022/02/23 03:16:04;;;;;;;3.97;2.70;;;18.00;47.80;;;;;;5023160;28;20300;-83
2022/02/23 03:18:29;;;;;;;4.32;2.30;;;18.00;48.00;;;;;;5057119;28;20252;-82
2022/02/23 03:20:55;;;;;;;4.28;2.60;;;18.00;47.70;;;;;;5056912;28;20261;-83
2022/02/23 03:23:21;;;;;;;4.88;2.65;;;18.00;47.90;;;;;;5040718;28;20154;-83
2022/02/23 03:25:47;;;;;;;5.43;2.60;;;18.00;47.90;;;;;;5056771;28;20195;-83
2022/02/23 03:28:14;;;;;;;4.20;2.60;;;18.00;47.70;;;;;;5056936;28;20191;-83
2022/02/23 03:30:43;;;;;;;5.35;3.00;;;18.00;47.90;;;;;;5056559;28;20232;-83
2022/02/23 03:33:12;;;;;;;5.68;2.70;;;18.00;47.70;;;;;;5022847;28;20177;-83
2022/02/23 03:35:42;;;;;;;2.92;2.63;;;18.00;47.80;;;;;;5023161;28;20208;-83
2022/02/23 03:38:11;;;;;;;3.83;2.70;;;18.00;47.80;;;;;;5023278;28;20216;-82
2022/02/23 03:40:40;;;;;;;5.68;2.30;;;18.00;47.70;;;;;;5039405;28;20270;-83
2022/02/23 03:43:09;;;;;;;4.30;2.30;;;18.10;48.40;;;;;;5039450;28;20242;-83
2022/02/23 03:45:38;;;;;;;4.88;2.80;;;18.00;47.60;;;;;;5039385;28;20191;-83
2022/02/23 03:48:04;;;;;;;4.53;2.83;;;18.00;47.60;;;;;;5022690;28;20262;-83
2022/02/23 03:50:30;;;;;;;5.78;2.60;;;18.00;47.60;;;;;;5074379;28;20157;-82
2022/02/23 03:52:55;;;;;;;4.10;2.30;;;18.10;47.60;;;;;;5056412;28;20211;-83
2022/02/23 03:55:21;;;;;;;4.05;2.92;;;18.10;47.70;;;;;;5040156;28;20157;-83
2022/02/23 03:57:47;;;;;;;3.95;2.72;;;18.00;47.50;;;;;;5056319;28;20196;-83
2022/02/23 04:00:13;;;;;;;4.13;2.50;;;18.00;47.60;;;;;;5072919;28;20167;-83
2022/02/23 04:02:42;;;;;;;3.45;2.42;;;18.10;47.50;;;;;;5039885;28;20189;-82
2022/02/23 04:05:08;;;;;;;3.78;2.30;;;18.00;47.60;;;;;;5038933;28;20597;-82
2022/02/23 04:07:36;;;;;;;5.05;2.70;;;18.00;47.70;;;;;;5056238;28;20165;-83
2022/02/23 04:10:04;;;;;;;3.30;2.60;;;18.00;47.50;;;;;;5022304;28;20599;-83
2022/02/23 04:12:30;;;;;;;2.80;2.15;;;18.00;47.70;;;;;;5022699;28;20268;-82
2022/02/23 04:14:56;;;;;;;3.45;2.50;;;18.00;47.40;;;;;;5056208;28;20244;-83
2022/02/23 04:17:22;;;;;;;5.00;2.50;;;18.00;47.50;;;;;;5073898;28;20219;-84
2022/02/23 04:19:48;;;;;;;4.13;2.47;;;18.10;47.70;;;;;;5060870;28;20161;-82
2022/02/23 04:22:14;;;;;;;4.88;2.20;;;18.00;47.80;;;;;;5062851;28;20154;-82
2022/02/23 04:24:40;;;;;;;4.65;2.10;;;17.90;47.30;;;;;;5081179;28;20647;-83
2022/02/23 04:27:05;;;;;;;3.17;2.50;;;18.00;47.70;;;;;;5046663;28;20157;-82
2022/02/23 04:29:31;;;;;;;4.35;2.58;;;18.00;47.50;;;;;;5057930;28;20217;-84
2022/02/23 04:31:58;;;;;;;5.82;2.85;;;18.00;47.50;;;;;;5041411;28;20177;-83
2022/02/23 04:34:23;;;;;;;5.03;2.50;;;18.00;47.80;;;;;;5042588;28;20174;-82
2022/02/23 04:36:49;;;;;;;4.35;2.40;;;18.00;47.50;;;;;;5059456;28;20220;-82
2022/02/23 04:39:15;;;;;;;3.42;2.60;;;18.00;47.50;;;;;;5069484;28;20166;-83
2022/02/23 04:41:43;;;;;;;5.10;2.63;;;18.00;47.70;;;;;;5050923;28;20154;-82
2022/02/23 04:44:09;;;;;;;3.92;2.88;;;18.00;47.80;;;;;;5050128;28;20193;-82
2022/02/23 04:46:36;;;;;;;4.13;2.53;;;18.00;47.70;;;;;;5067045;28;20150;-84
2022/02/23 04:49:09;;;;;;;4.93;2.55;;;18.00;47.80;;;;;;5058060;28;20566;-82
2022/02/23 04:51:36;;;;;;;4.28;2.55;;;17.90;47.60;;;;;;5035021;28;20178;-82
2022/02/23 04:54:02;;;;;;;6.00;2.35;;;18.00;47.60;;;;;;5035903;28;20146;-83
2022/02/23 04:56:28;;;;;;;4.85;2.53;;;17.90;47.70;;;;;;5052405;28;20720;-84
2022/02/23 04:58:54;;;;;;;4.05;2.63;;;17.90;47.80;;;;;;5052250;28;20253;-84
2022/02/23 05:01:20;;;;;;;4.00;2.60;;;18.00;47.50;;;;;;5052270;28;20241;-82
2022/02/23 05:03:45;;;;;;;3.88;2.60;;;18.00;47.50;;;;;;5053367;28;20154;-83
2022/02/23 05:06:11;;;;;;;3.05;2.40;;;18.00;47.70;;;;;;5052053;28;20190;-83
2022/02/23 05:08:37;;;;;;;3.10;2.22;;;17.90;47.30;;;;;;5052265;28;20577;-83
2022/02/23 05:11:03;;;;;;;6.68;2.55;;;17.90;47.60;;;;;;5052024;28;20150;-83
2022/02/23 05:13:30;;;;;;;3.78;2.45;;;18.00;47.60;;;;;;5036006;28;20154;-83
2022/02/23 05:15:57;;;;;;;3.92;2.50;;;17.90;47.70;;;;;;5036571;28;20209;-83
2022/02/23 05:18:24;;;;;;;5.22;2.42;;;18.00;47.70;;;;;;5023213;28;20214;-82
2022/02/23 05:20:53;;;;;;;2.67;2.40;;;17.90;47.40;;;;;;5056362;28;20193;-83
2022/02/23 05:23:22;;;;;;;2.63;2.20;;;17.90;47.70;;;;;;5039126;28;20178;-84
2022/02/23 05:25:52;;;;;;;4.40;2.42;;;17.90;47.40;;;;;;5039203;28;20188;-83
2022/02/23 05:28:20;;;;;;;3.55;2.28;;;17.90;46.80;;;;;;5039529;28;20178;-82
2022/02/23 05:30:46;;;;;;;3.22;2.08;;;18.00;47.10;;;;;;5035106;28;20261;-83
2022/02/23 05:33:12;;;;;;;3.42;2.45;;;18.00;46.90;;;;;;5035951;28;20224;-83
2022/02/23 05:35:39;;;;;;;3.30;2.47;;;18.00;47.00;;;;;;5035976;28;20228;-82
2022/02/23 05:38:05;;;;;;;4.15;2.50;;;18.00;47.00;;;;;;5035957;28;20261;-84
2022/02/23 05:40:31;;;;;;;4.13;2.45;;;18.10;47.10;;;;;;5036765;28;20285;-83
2022/02/23 05:42:56;;;;;;;4.30;2.33;;;18.10;46.70;;;;;;5035836;28;20250;-83
2022/02/23 05:45:22;;;;;;;4.10;2.67;;;18.10;46.30;;;;;;5018906;28;20162;-82
2022/02/23 05:47:48;;;;;;;4.18;2.45;;;18.20;46.40;;;;;;5035813;28;20158;-82
2022/02/23 05:50:13;;;;;;;2.85;2.55;;;18.20;46.30;;;;;;5035471;28;20163;-82
2022/02/23 05:52:39;;;;;;;3.40;2.60;;;18.20;46.40;;;;;;5035755;28;20151;-82
2022/02/23 05:55:05;;;;;;;4.05;2.35;;;18.20;46.20;;;;;;5035722;28;20159;-83
2022/02/23 05:57:31;;;;;;;3.05;2.60;;;18.20;46.80;;;;;;5018883;28;20662;-83
2022/02/23 05:59:58;;;;;;;3.25;2.50;;;18.20;46.00;;;;;;5035344;28;20151;-83
2022/02/23 06:02:24;;;;;;;2.47;2.20;;;18.20;45.70;;;;;;5034427;28;20277;-82
2022/02/23 06:04:49;;;;;;;3.13;2.50;;;18.20;45.80;;;;;;5019607;28;20186;-82
2022/02/23 06:07:15;;;;;;;2.78;2.10;;;18.20;45.80;;;;;;5071920;28;20193;-82
2022/02/23 06:09:41;;;;;;;4.28;2.63;;;18.20;45.40;;;;;;5072392;28;20153;-82
2022/02/23 06:12:08;;;;;;;4.60;2.47;;;18.30;45.30;;;;;;5054699;28;20151;-82
2022/02/23 06:14:34;;;;;;;3.65;2.45;;;18.30;45.40;;;;;;5071290;28;20617;-83
2022/02/23 06:17:01;;;;;;;2.90;2.42;;;18.30;45.10;;;;;;5071196;28;20200;-83
2022/02/23 06:19:26;;;;;;;2.58;2.17;;;18.30;45.30;;;;;;5054248;28;20173;-83
2022/02/23 06:21:52;;;;;;;3.20;2.38;;;18.30;45.20;;;;;;5071130;28;20162;-82
2022/02/23 06:24:18;;;;;;;2.75;2.20;;;18.30;44.80;;;;;;5071044;28;20213;-83
2022/02/23 06:26:44;;;;;;;3.20;2.33;;;18.40;45.00;;;;;;5071358;28;20681;-83
2022/02/23 06:29:09;;;;;;;3.20;2.63;;;18.40;44.50;;;;;;5054728;28;20246;-83
2022/02/23 06:31:35;;;;;;;4.38;2.30;;;18.40;44.70;;;;;;5074539;28;20292;-83
2022/02/23 06:34:01;;;;;;;2.60;2.38;;;18.50;44.40;;;;;;5074567;28;20149;-83
2022/02/23 06:36:27;;;;;;;2.65;2.30;;;18.40;44.50;;;;;;5057773;28;20197;-83
2022/02/23 06:38:54;;;;;;;2.70;2.30;;;18.40;44.60;;;;;;5074615;28;20608;-83
2022/02/23 06:41:22;;;;;;;4.40;2.70;;;18.40;44.40;;;;;;5074213;28;20612;-83
2022/02/23 06:43:48;;;;;;;3.45;2.72;;;18.40;44.50;;;;;;5074572;28;20161;-83
2022/02/23 06:46:15;;;;;;;2.38;2.10;;;18.40;44.50;;;;;;5074787;28;20150;-83
2022/02/23 06:48:41;;;;;;;2.50;2.13;;;18.40;44.50;;;;;;5057727;28;20170;-82
2022/02/23 06:51:08;;;;;;;2.67;2.30;;;18.40;44.20;;;;;;5074277;28;20189;-82
2022/02/23 06:53:33;;;;;;;3.10;2.60;;;18.40;44.20;;;;;;5041878;28;20612;-81
2022/02/23 06:55:59;;;;;;;3.50;2.30;;;18.40;44.60;;;;;;5058045;28;20204;-82
2022/02/23 06:58:25;;;;;;;5.07;2.65;;;18.40;44.20;;;;;;5058100;28;20227;-82
2022/02/23 07:00:51;;;;;;;2.83;2.33;;;18.40;44.10;;;;;;5076240;28;20238;-82
2022/02/23 07:03:26;;;;;;;3.38;2.20;;;18.50;43.80;;;;;;5060476;28;20203;-82
2022/02/23 07:05:52;;;;;;;3.13;2.42;;;18.50;43.60;;;;;;5057151;28;20181;-83
2022/02/23 07:08:18;;;;;;;2.95;2.28;;;18.50;43.90;;;;;;5075622;28;20162;-82
2022/02/23 07:10:53;;;;;;;4.15;2.47;;;18.50;43.20;;;;;;5074953;28;20181;-82
2022/02/23 07:13:28;;;;;;;3.40;2.40;;;18.50;43.50;;;;;;5056079;28;20181;-82
2022/02/23 07:15:53;;;;;;;3.50;2.60;;;18.50;43.50;;;;;;5036232;28;20181;-82
2022/02/23 07:18:24;;;;;;;3.17;2.75;;;18.50;43.70;;;;;;5053585;28;20573;-82
2022/02/23 07:20:50;;;;;;;3.55;2.50;;;18.40;43.60;;;;;;5036321;28;20197;-82
2022/02/23 07:23:17;;;;;;;2.67;2.33;;;18.50;43.40;;;;;;5054739;28;20158;-83
2022/02/23 07:25:44;;;;;;;3.33;2.50;;;18.50;43.00;;;;;;5033317;28;20178;-83
2022/02/23 07:28:11;;;;;;;2.92;2.47;;;18.40;43.40;;;;;;5033427;28;20189;-82
2022/02/23 07:30:38;;;;;;;2.55;2.30;;;18.50;43.30;;;;;;5034980;28;20724;-82
2022/02/23 07:33:04;;;;;;;3.72;2.50;;;18.50;43.20;;;;;;5036998;28;20166;-83
2022/02/23 07:35:30;;;;;;;2.80;2.50;;;18.50;42.80;;;;;;5055171;28;20156;-82
2022/02/23 07:38:04;;;;;;;3.10;2.80;;;18.50;41.80;;;;;;5054731;28;20228;-83
2022/02/23 07:40:30;;;;;;;2.83;2.50;;;18.40;42.40;;;;;;5053765;28;20158;-83
2022/02/23 07:42:56;;;;;;;3.40;2.72;;;18.30;42.60;;;;;;5036937;28;20273;-82
2022/02/23 07:45:22;;;;;;;3.05;2.65;;;18.30;41.80;;;;;;5054666;28;20154;-82
2022/02/23 07:47:48;;;;;;;3.17;2.58;;;18.30;41.90;;;;;;5036991;28;20166;-83
2022/02/23 07:50:16;;;;;;;3.00;2.60;;;18.30;41.90;;;;;;5053200;28;20142;-84
2022/02/23 07:52:42;;;;;;;3.10;2.30;;;18.30;41.60;;;;;;5037516;28;20170;-82
2022/02/23 07:55:09;;;;;;;4.43;2.45;;;18.20;41.20;;;;;;5054877;28;20150;-82
2022/02/23 07:57:35;;;;;;;3.28;2.70;;;18.30;42.00;;;;;;5054854;28;20186;-83
2022/02/23 08:00:01;;;;;;;2.88;2.38;;;18.40;41.40;;;;;;5053309;28;20157;-81
2022/02/23 08:02:33;;;;;;;3.08;2.50;;;18.40;41.90;;;;;;5036405;28;20545;-82
2022/02/23 08:04:59;;;;;;;4.03;2.78;;;18.30;42.10;;;;;;5038219;28;20241;-83
2022/02/23 08:07:25;;;;;;;2.80;2.50;;;18.40;42.40;;;;;;5038007;28;20251;-83
2022/02/23 08:09:51;;;;;;;3.10;2.60;;;18.50;42.00;;;;;;5054477;28;20158;-82
2022/02/23 08:12:16;;;;;;;3.75;3.00;;;18.50;41.90;;;;;;5054467;28;20162;-82
2022/02/23 08:14:43;;;;;;;3.78;2.78;;;18.40;41.20;;;;;;5053713;28;20164;-82
2022/02/23 08:19:51;;;;;;;4.05;3.10;;;18.20;40.80;;;;;;5052762;28;20166;-82
2022/02/23 08:22:17;;;;;;;3.38;2.95;;;18.20;40.70;;;;;;5036756;28;20170;-82
2022/02/23 08:24:45;;;;;;;4.25;3.08;;;18.20;40.90;;;;;;5037209;28;20166;-81
2022/02/23 08:27:14;;;;;;;3.20;2.47;;;18.20;40.80;;;;;;5053790;28;20216;-81
2022/02/23 08:29:40;;;;;;;4.38;2.78;;;18.30;41.10;;;;;;5059200;28;20228;-81
2022/02/23 08:32:09;;;;;;;3.92;2.67;;;18.30;41.40;;;;;;5059634;28;20157;-82
2022/02/23 08:34:35;;;;;;;3.17;2.65;;;18.30;41.10;;;;;;5042712;28;20173;-82
2022/02/23 08:37:01;;;;;;;3.35;2.72;;;18.30;41.60;;;;;;5042465;28;20216;-82
2022/02/23 08:39:28;;;;;;;3.10;2.55;;;18.30;41.10;;;;;;5050971;28;20162;-81
2022/02/23 08:41:54;;;;;;;3.55;2.83;;;18.40;41.20;;;;;;5055831;28;20146;-81
2022/02/23 08:44:19;;;;;;;3.65;2.85;;;18.40;41.40;;;;;;5055931;28;20203;-83
2022/02/23 08:46:45;;;;;;;3.08;2.50;;;18.40;41.30;;;;;;5038628;28;20181;-82
2022/02/23 08:49:13;;;;;;;3.25;2.60;;;18.40;41.30;;;;;;5055758;28;20185;-82
2022/02/23 08:51:44;;;;;;;3.53;2.45;;;18.50;41.20;;;;;;5030150;28;20196;-83
2022/02/23 08:54:10;;;;;;;3.63;2.80;;;18.50;40.60;;;;;;5026942;28;20271;-82
2022/02/23 08:56:35;;;;;;;7.50;2.97;;;18.60;40.60;;;;;;5039409;28;20343;-82
2022/02/23 08:59:01;;;;;;;5.38;2.70;;;18.60;40.70;;;;;;5060567;28;20196;-82
2022/02/23 09:01:29;;;;;;;4.38;2.72;;;18.50;40.80;;;;;;5038922;28;20158;-81
2022/02/23 09:03:55;;;;;;;3.08;2.53;;;18.50;40.50;;;;;;5023538;28;20161;-81
2022/02/23 09:06:23;;;;;;;7.05;2.65;;;18.60;40.60;;;;;;5039019;28;20150;-81
2022/02/23 09:08:52;;;;;;;5.28;2.50;;;18.60;41.40;;;;;;5073450;28;20156;-81
2022/02/23 09:11:20;;;;;;;4.47;2.72;;;18.60;40.70;;;;;;5020838;28;20254;-81
2022/02/23 09:13:49;;;;;;;3.70;2.72;;;18.70;40.50;;;;;;4988827;28;20624;-82
2022/02/23 09:16:17;;;;;;;2.60;2.33;;;18.60;40.60;;;;;;5022026;28;20620;-81
2022/02/23 09:18:43;;;;;;;4.45;2.90;;;18.60;40.50;;;;;;5034648;28;20250;-81
2022/02/23 09:21:11;;;;;;;2.90;2.30;;;18.70;40.40;;;;;;5060597;28;20157;-82
2022/02/23 09:23:39;;;;;;;3.03;2.38;;;18.70;40.40;;;;;;5041208;28;20187;-82
2022/02/23 09:26:08;;;;;;;5.95;2.63;;;18.80;40.10;;;;;;5059393;28;20271;-81
2022/02/23 09:28:38;;;;;;;3.28;2.30;;;18.70;40.10;;;;;;5058967;28;20189;-82
2022/02/23 09:31:08;;;;;;;4.18;2.40;;;18.70;40.20;;;;;;5042878;28;20228;-83
2022/02/23 09:33:35;;;;;;;4.15;2.40;;;18.70;40.40;;;;;;5062690;28;20196;-82
2022/02/23 09:36:15;;;;;;;2.80;2.42;;;18.70;40.10;;;;;;5046860;28;20168;-84
2022/02/23 09:39:11;;;;;;;3.60;2.63;;;18.70;41.10;;;;;;5048192;28;20307;-85
2022/02/23 09:41:40;;;;;;;5.32;2.50;;;18.60;41.20;;;;;;5067513;28;20191;-84
2022/02/23 09:44:07;;;;;;;3.00;2.05;;;18.60;41.40;;;;;;5027458;28;20179;-84
2022/02/23 09:46:34;;;;;;;4.00;2.42;;;18.70;40.90;;;;;;5058110;28;20177;-83
2022/02/23 09:49:01;;;;;;;3.55;2.13;;;18.70;41.00;;;;;;5040461;28;20193;-83
2022/02/23 09:51:27;;;;;;;3.90;2.33;;;18.70;40.80;;;;;;5057706;28;20492;-83
2022/02/23 09:53:55;;;;;;;4.50;2.60;;;18.70;40.50;;;;;;5041475;28;20180;-84
2022/02/23 09:56:22;;;;;;;3.55;2.63;;;18.70;40.50;;;;;;5057897;28;20554;-82
2022/02/23 09:58:50;;;;;;;3.20;2.60;;;18.80;40.80;;;;;;5057527;28;20203;-81
2022/02/23 10:01:17;;;;;;;4.38;2.60;;;18.70;40.50;;;;;;5025172;28;20256;-82
2022/02/23 10:03:45;;;;;;;4.43;2.60;;;18.80;40.60;;;;;;5044971;28;20211;-82
2022/02/23 10:06:20;;;;;;;2.63;2.13;;;18.80;40.60;;;;;;5063394;28;20236;-82
2022/02/23 10:08:46;;;;;;;3.05;2.60;;;18.80;40.20;;;;;;5080483;28;20160;-82
2022/02/23 10:11:19;;;;;;;4.05;2.50;;;18.80;40.10;;;;;;5063594;28;20161;-82
2022/02/23 10:13:53;;;;;;;3.70;2.60;;;18.80;40.80;;;;;;5062526;28;20196;-82
2022/02/23 10:16:35;;;;;;;3.22;2.20;;;18.80;40.10;;;;;;5062618;28;20200;-82
2022/02/23 10:19:10;;;;;;;3.28;2.50;;;18.80;40.00;;;;;;5065949;28;20173;-83
2022/02/23 10:21:56;;;;;;;2.60;2.20;;;18.90;40.10;;;;;;5062756;28;20165;-82
2022/02/23 10:24:37;;;;;;;3.47;2.58;;;18.90;40.10;;;;;;5079866;28;20638;-83
2022/02/23 10:27:10;;;;;;;4.60;2.42;;;18.90;40.20;;;;;;5080573;28;20195;-82
2022/02/23 10:29:36;;;;;;;4.57;2.33;;;18.90;40.30;;;;;;5082464;28;20291;-83
2022/02/23 10:32:14;;;;;;;4.75;2.30;;;18.90;40.30;;;;;;5064629;28;20199;-82
2022/02/23 10:34:45;;;;;;;4.35;2.40;;;18.90;40.20;;;;;;5048832;28;20279;-82
2022/02/23 10:37:11;;;;;;;3.55;2.70;;;18.90;40.40;;;;;;5068745;28;20230;-82
2022/02/23 10:39:41;;;;;;;4.43;2.30;;;18.80;40.20;;;;;;5068121;28;20196;-81
2022/02/23 10:42:10;;;;;;;6.00;2.30;;;18.80;40.10;;;;;;5067611;28;20164;-81
2022/02/23 10:44:40;;;;;;;3.38;2.78;;;18.90;40.00;;;;;;5103613;28;20232;-81
2022/02/23 10:47:07;;;;;;;3.90;2.38;;;18.90;40.00;;;;;;5080371;28;20153;-81
2022/02/23 10:49:37;;;;;;;4.15;2.35;;;18.90;40.00;;;;;;5080804;28;20153;-82
2022/02/23 10:52:06;;;;;;;3.35;2.40;;;18.90;40.00;;;;;;5047113;28;20185;-83
2022/02/23 10:54:35;;;;;;;4.93;2.60;;;18.80;40.00;;;;;;5081406;28;20149;-80
2022/02/23 10:57:03;;;;;;;3.55;2.50;;;18.80;40.00;;;;;;5046822;28;20578;-81
2022/02/23 10:59:30;;;;;;;3.45;2.35;;;18.90;40.00;;;;;;5064939;28;20176;-82
2022/02/23 11:01:56;;;;;;;2.70;2.38;;;19.00;39.80;;;;;;5063198;28;20171;-81
2022/02/23 11:04:22;;;;;;;5.15;2.53;;;18.90;39.80;;;;;;5096639;28;20157;-81
2022/02/23 11:06:51;;;;;;;4.03;2.75;;;18.90;40.00;;;;;;5078134;28;20243;-82
2022/02/23 11:09:18;;;;;;;4.65;2.45;;;19.00;39.90;;;;;;5078214;28;20188;-81
2022/02/23 11:11:43;;;;;;;3.95;2.58;;;18.90;39.80;;;;;;5062447;28;20248;-81
2022/02/23 11:14:12;;;;;;;3.17;2.53;;;18.90;39.90;;;;;;5077409;28;20616;-81
2022/02/23 11:16:38;;;;;;;5.90;2.53;;;18.80;39.90;;;;;;5062216;28;20238;-81
2022/02/23 11:19:04;;;;;;;3.10;2.47;;;18.90;39.90;;;;;;5062251;28;20169;-82
2022/02/23 11:21:34;;;;;;;3.75;2.42;;;18.90;40.00;;;;;;5078733;28;20180;-82
2022/02/23 11:24:01;;;;;;;3.15;2.40;;;18.80;40.70;;;;;;5062463;28;20165;-82
2022/02/23 11:26:35;;;;;;;2.88;2.30;;;18.80;40.10;;;;;;5078182;28;20165;-81
2022/02/23 11:29:19;;;;;;;3.75;2.72;;;18.90;40.00;;;;;;5079871;28;20517;-81
2022/02/23 11:31:49;;;;;;;3.08;2.50;;;18.90;39.90;;;;;;5078396;28;20177;-81
2022/02/23 11:34:16;;;;;;;5.18;2.60;;;18.90;39.90;;;;;;5060718;28;20165;-81
2022/02/23 11:36:44;;;;;;;3.88;2.95;;;18.90;39.80;;;;;;5060691;28;20200;-82
2022/02/23 11:39:26;;;;;;;5.15;2.50;;;18.90;40.50;;;;;;5078541;28;20619;-81
2022/02/23 11:41:54;;;;;;;5.10;3.00;;;18.90;39.80;;;;;;5079169;28;20684;-81
2022/02/23 11:44:26;;;;;;;4.00;2.70;;;18.90;39.60;;;;;;5076712;28;20153;-81
2022/02/23 11:47:25;;;;;;;4.55;2.72;;;18.90;39.60;;;;;;5078124;28;20176;-82
2022/02/23 11:56:25;;;;;;;2.92;2.42;;;19.00;39.10;;;;;;5094442;28;20169;-82
2022/02/23 11:58:53;;;;;;;2.50;2.20;;;19.00;39.10;;;;;;5095213;28;20244;-82
2022/02/23 12:01:21;;;;;;;3.33;2.30;;;19.10;38.80;;;;;;5059965;28;20187;-84
2022/02/23 12:04:06;;;;;;;3.58;2.40;;;19.20;39.00;;;;;;5044499;28;20272;-83
2022/02/23 12:07:05;;;;;;;7.30;2.97;;;19.10;39.10;;;;;;5063403;28;20522;-84
2022/02/23 12:10:12;;;;;;;3.67;2.58;;;19.00;39.20;;;;;;5060082;28;20216;-83
2022/02/23 12:12:53;;;;;;;5.03;2.67;;;19.00;39.40;;;;;;5063776;28;20180;-83
2022/02/23 12:15:40;;;;;;;2.53;2.30;;;19.00;39.60;;;;;;5078138;28;20168;-83
2022/02/23 12:18:16;;;;;;;2.92;2.60;;;19.10;39.30;;;;;;5064327;28;20180;-83
2022/02/23 12:20:49;;;;;;;3.75;2.65;;;19.00;39.20;;;;;;5095352;28;20220;-82
2022/02/23 12:23:35;;;;;;;4.88;2.65;;;19.00;39.20;;;;;;5094489;28;20171;-82
2022/02/23 12:26:17;;;;;;;3.85;2.55;;;19.00;40.00;;;;;;5080011;28;20183;-82
2022/02/23 12:28:47;;;;;;;2.90;2.50;;;19.00;39.30;;;;;;5076913;28;20160;-82
2022/02/23 12:31:29;;;;;;;3.38;2.90;;;19.00;39.30;;;;;;5076552;28;20213;-82
2022/02/23 12:33:58;;;;;;;3.60;2.47;;;19.00;39.20;;;;;;5074461;28;20228;-82
2022/02/23 12:36:29;;;;;;;4.03;3.08;;;18.90;39.40;;;;;;5057010;28;20564;-82
2022/02/23 12:38:56;;;;;;;3.90;2.75;;;19.00;39.30;;;;;;5057041;28;20150;-83
2022/02/23 12:41:24;;;;;;;4.50;2.80;;;19.00;39.40;;;;;;5057029;28;20620;-83
2022/02/23 12:44:07;;;;;;;2.30;2.10;;;19.00;39.40;;;;;;5074379;28;20164;-82
2022/02/23 12:46:35;;;;;;;3.22;2.67;;;19.00;39.30;;;;;;5056796;28;20169;-83
2022/02/23 12:49:01;;;;;;;4.13;2.30;;;19.00;39.30;;;;;;5073569;28;20248;-82
2022/02/23 12:51:29;;;;;;;5.00;2.65;;;18.90;39.20;;;;;;5055887;28;20240;-82
2022/02/23 12:53:58;;;;;;;3.45;2.72;;;19.00;39.10;;;;;;5056690;28;20169;-82
2022/02/23 12:56:27;;;;;;;2.85;2.30;;;19.00;39.20;;;;;;5057213;28;20335;-82
2022/02/23 12:58:55;;;;;;;3.70;2.30;;;19.00;39.20;;;;;;5054781;28;20165;-82
2022/02/23 13:01:30;;;;;;;2.60;2.40;;;19.10;39.10;;;;;;5056941;28;20184;-82
2022/02/23 13:03:57;;;;;;;3.40;2.50;;;19.10;38.90;;;;;;5039713;28;20204;-82